Time;durP1;ratioP1;P1;durP2;ratioP2;P2;SDS_P1;SDS_P2;PMS_P1;PMS_P2;Temp;Humidity;BMP_temperature;BMP_pressure;BME280_temperature;BME280_humidity;BME280_pressure;Samples;Min_cycle;Max_cycle;Signal;HPM_P1;HPM_P2
2023/12/02 00:01:29;;;;;;;;;;;;;;;3.42;91.78;100814.53;7325683;19;20400;-66
2023/12/02 00:03:56;;;;;;;;;;;;;;;3.42;91.76;100814.53;7316816;19;19911;-66
2023/12/02 00:06:23;;;;;;;;;;;;;;;3.34;92.03;100814.25;7315801;19;19925;-69
2023/12/02 00:08:50;;;;;;;;;;;;;;;3.39;92.38;100819.13;7311853;19;20478;-68
2023/12/02 00:11:17;;;;;;;;;;;;;;;3.39;92.83;100822.53;7321697;19;19915;-69
2023/12/02 00:13:44;;;;;;;;;;;;;;;3.46;91.90;100822.94;7312658;19;19934;-67
2023/12/02 00:16:11;;;;;;;;;;;;;;;3.41;92.05;100819.81;7304725;19;19943;-67
2023/12/02 00:18:38;;;;;;;;;;;;;;;3.39;92.57;100816.50;7320922;19;20502;-66
2023/12/02 00:21:05;;;;;;;;;;;;;;;3.38;92.21;100814.84;7310631;19;19915;-69
2023/12/02 00:23:32;;;;;;;;;;;;;;;3.33;92.04;100814.34;7318016;19;19926;-67
2023/12/02 00:25:59;;;;;;;;;;;;;;;3.35;92.55;100821.06;7320248;19;19978;-66
2023/12/02 00:28:26;;;;;;;;;;;;;;;3.35;93.21;100812.47;7327262;19;22407;-66
2023/12/02 00:30:53;;;;;;;;;;;;;;;3.39;93.70;100816.50;7317679;19;20416;-66
2023/12/02 00:33:20;;;;;;;;;;;;;;;3.43;93.53;100820.56;7320362;19;20432;-67
2023/12/02 00:35:47;;;;;;;;;;;;;;;3.44;93.74;100822.22;7320432;19;21005;-67
2023/12/02 00:38:14;;;;;;;;;;;;;;;3.48;93.08;100830.63;7328580;19;20546;-67
2023/12/02 00:40:41;;;;;;;;;;;;;;;3.51;93.07;100827.81;7316475;19;20404;-68
2023/12/02 00:43:08;;;;;;;;;;;;;;;3.45;92.24;100822.09;7324729;19;19919;-68
2023/12/02 00:45:35;;;;;;;;;;;;;;;3.37;92.71;100821.81;7330620;19;19915;-68
2023/12/02 00:48:02;;;;;;;;;;;;;;;3.36;92.88;100817.53;7339644;19;19911;-67
2023/12/02 00:50:29;;;;;;;;;;;;;;;3.41;92.63;100819.81;7335223;19;19961;-68
2023/12/02 00:52:56;;;;;;;;;;;;;;;3.46;93.84;100822.94;7332240;19;20276;-68
2023/12/02 00:55:23;;;;;;;;;;;;;;;3.47;92.66;100818.56;7318793;19;19938;-68
2023/12/02 00:57:50;;;;;;;;;;;;;;;3.41;92.25;100822.41;7327284;19;19934;-68
2023/12/02 01:00:17;;;;;;;;;;;;;;;3.42;93.05;100826.69;7331454;19;19930;-68
2023/12/02 01:02:45;;;;;;;;;;;;;;;3.36;93.25;100820.13;7304643;19;20394;-68
2023/12/02 01:05:12;;;;;;;;;;;;;;;3.31;93.08;100829.19;7314874;19;19952;-66
2023/12/02 01:07:38;;;;;;;;;;;;;;;3.31;93.35;100831.78;7323998;19;19923;-69
2023/12/02 01:10:06;;;;;;;;;;;;;;;3.28;93.54;100840.66;7329379;19;20362;-68
2023/12/02 01:12:33;;;;;;;;;;;;;;;3.29;92.93;100838.88;7322344;19;19938;-67
2023/12/02 01:17:27;;;;;;;;;;;;;;;3.28;93.95;100839.81;7312291;19;20399;-66
2023/12/02 01:19:52;;;;;;;;;;;;;;;3.23;93.76;100834.94;7320683;19;19918;-69
2023/12/02 01:22:19;;;;;;;;;;;;;;;3.22;93.93;100828.06;7324104;19;19915;-68
2023/12/02 01:24:47;;;;;;;;;;;;;;;3.20;93.45;100829.94;7321926;19;19922;-66
2023/12/02 01:27:13;;;;;;;;;;;;;;;3.19;93.73;100833.50;7320993;19;19926;-68
2023/12/02 01:29:40;;;;;;;;;;;;;;;3.16;93.50;100835.44;7312417;19;19919;-67
2023/12/02 01:32:07;;;;;;;;;;;;;;;3.18;93.81;100833.59;7324011;19;19918;-66
2023/12/02 01:34:34;;;;;;;;;;;;;;;3.13;93.88;100833.91;7319748;19;19925;-66
2023/12/02 01:37:01;;;;;;;;;;;;;;;3.12;93.72;100840.03;7299195;19;19930;-68
2023/12/02 01:39:28;;;;;;;;;;;;;;;3.13;93.86;100833.06;7323660;19;21001;-67
2023/12/02 01:41:55;;;;;;;;;;;;;;;3.15;93.28;100836.41;7321704;19;19922;-68
2023/12/02 01:44:22;;;;;;;;;;;;;;;3.10;92.62;100828.09;7317231;19;19949;-68
2023/12/02 01:46:49;;;;;;;;;;;;;;;3.04;92.49;100829.34;7316764;19;20458;-68
2023/12/02 01:49:17;;;;;;;;;;;;;;;3.03;92.48;100839.84;7310171;19;19955;-68
2023/12/02 01:51:44;;;;;;;;;;;;;;;2.99;92.44;100840.06;7303606;19;19948;-67
2023/12/02 01:54:11;;;;;;;;;;;;;;;2.98;93.26;100848.78;7314850;19;19951;-68
2023/12/02 01:56:39;;;;;;;;;;;;;;;2.97;93.50;100847.13;7337195;19;19927;-68
2023/12/02 01:59:06;;;;;;;;;;;;;;;3.00;93.88;100859.88;7335732;19;19997;-68
2023/12/02 02:01:33;;;;;;;;;;;;;;;3.08;94.15;100861.16;7306947;19;20467;-68
2023/12/02 02:04:00;;;;;;;;;;;;;;;3.12;94.25;100860.00;7316388;19;19922;-68
2023/12/02 02:06:27;;;;;;;;;;;;;;;3.16;93.66;100866.63;7316677;19;19919;-68
2023/12/02 02:08:54;;;;;;;;;;;;;;;3.17;93.83;100869.16;7316827;19;19941;-67
2023/12/02 02:11:21;;;;;;;;;;;;;;;3.15;93.07;100880.59;7321110;19;19937;-67
2023/12/02 02:13:48;;;;;;;;;;;;;;;3.16;93.44;100879.63;7314467;19;20252;-67
2023/12/02 02:16:15;;;;;;;;;;;;;;;3.18;93.68;100882.97;7318262;19;20435;-68
2023/12/02 02:18:42;;;;;;;;;;;;;;;3.18;93.09;100876.00;7321016;19;20973;-69
2023/12/02 02:21:09;;;;;;;;;;;;;;;3.16;92.55;100888.28;7309373;19;19914;-68
2023/12/02 02:23:36;;;;;;;;;;;;;;;3.17;92.16;100882.13;7317588;19;20387;-68
2023/12/02 02:26:03;;;;;;;;;;;;;;;3.12;91.90;100884.22;7331057;19;20324;-66
2023/12/02 02:28:30;;;;;;;;;;;;;;;3.07;92.06;100890.66;7332849;19;19944;-68
2023/12/02 02:30:57;;;;;;;;;;;;;;;2.95;92.40;100877.56;7328763;19;19935;-66
2023/12/02 02:33:24;;;;;;;;;;;;;;;2.95;92.69;100882.75;7332258;19;19925;-69
2023/12/02 02:35:51;;;;;;;;;;;;;;;2.97;93.30;100890.44;7332302;19;20253;-66
2023/12/02 02:38:18;;;;;;;;;;;;;;;3.00;93.51;100888.47;7321683;19;19925;-66
2023/12/02 02:40:45;;;;;;;;;;;;;;;2.99;93.50;100889.44;7326848;19;19929;-69
2023/12/02 02:43:12;;;;;;;;;;;;;;;2.98;93.78;100892.97;7323078;19;20655;-66
2023/12/02 02:45:39;;;;;;;;;;;;;;;3.02;94.16;100896.16;7324442;19;20985;-67
2023/12/02 02:48:05;;;;;;;;;;;;;;;3.09;94.27;100897.44;7310274;19;20495;-68
2023/12/02 02:50:31;;;;;;;;;;;;;;;3.09;94.12;100901.78;7318905;19;20001;-67
2023/12/02 02:52:58;;;;;;;;;;;;;;;3.10;93.90;100904.28;7323500;19;21295;-69
2023/12/02 02:55:25;;;;;;;;;;;;;;;3.17;94.77;100907.28;7320113;19;19969;-69
2023/12/02 02:57:52;;;;;;;;;;;;;;;3.20;94.57;100899.31;7311819;19;20001;-66
2023/12/02 03:00:19;;;;;;;;;;;;;;;3.19;94.61;100895.88;7318255;19;20414;-69
2023/12/02 03:02:46;;;;;;;;;;;;;;;3.20;93.75;100899.31;7324166;19;20355;-67
2023/12/02 03:05:13;;;;;;;;;;;;;;;3.15;93.81;100901.38;7321390;19;19914;-67
2023/12/02 03:07:40;;;;;;;;;;;;;;;3.18;93.69;100899.41;7317751;19;19918;-66
2023/12/02 03:10:07;;;;;;;;;;;;;;;3.20;93.37;100897.50;7306682;19;20238;-67
2023/12/02 03:12:34;;;;;;;;;;;;;;;3.16;93.40;100898.66;7316422;19;19943;-67
2023/12/02 03:15:02;;;;;;;;;;;;;;;3.18;93.36;100899.41;7319750;19;20595;-68
2023/12/02 03:17:28;;;;;;;;;;;;;;;3.18;92.69;100907.19;7318320;19;19964;-67
2023/12/02 03:19:55;;;;;;;;;;;;;;;3.13;92.71;100909.28;7311476;19;20558;-66
2023/12/02 03:22:22;;;;;;;;;;;;;;;3.14;92.69;100912.72;7312943;19;20554;-66
2023/12/02 03:24:49;;;;;;;;;;;;;;;3.16;91.68;100916.84;7326139;19;19981;-66
2023/12/02 03:27:16;;;;;;;;;;;;;;;3.06;91.38;100913.22;7309216;19;19914;-67
2023/12/02 03:29:43;;;;;;;;;;;;;;;3.07;91.91;100921.84;7319958;19;19919;-67
2023/12/02 03:32:10;;;;;;;;;;;;;;;3.06;92.02;100918.41;7310228;19;21048;-68
2023/12/02 03:34:37;;;;;;;;;;;;;;;3.03;91.84;100915.19;7317351;19;20013;-68
2023/12/02 03:37:04;;;;;;;;;;;;;;;3.02;92.55;100914.34;7314712;19;19919;-68
2023/12/02 03:39:31;;;;;;;;;;;;;;;3.08;93.66;100915.72;7316766;19;20035;-69
2023/12/02 03:41:58;;;;;;;;;;;;;;;3.08;93.66;100921.75;7335999;19;19914;-67
2023/12/02 03:44:25;;;;;;;;;;;;;;;3.11;93.63;100921.53;7329499;19;19914;-68
2023/12/02 03:46:51;;;;;;;;;;;;;;;3.12;93.06;100922.38;7316229;19;19918;-68
2023/12/02 03:49:18;;;;;;;;;;;;;;;3.13;92.61;100927.47;7315998;19;19922;-67
2023/12/02 03:51:45;;;;;;;;;;;;;;;3.15;92.12;100929.97;7321917;19;19925;-66
2023/12/02 03:54:12;;;;;;;;;;;;;;;3.12;92.41;100920.59;7324163;19;19918;-69
2023/12/02 03:56:39;;;;;;;;;;;;;;;3.16;92.51;100924.66;7316474;19;20405;-67
2023/12/02 03:59:06;;;;;;;;;;;;;;;3.11;92.50;100918.09;7323850;19;19923;-67
2023/12/02 04:01:33;;;;;;;;;;;;;;;3.06;92.14;100918.41;7310279;19;20440;-68
2023/12/02 04:04:00;;;;;;;;;;;;;;;3.06;92.02;100918.41;7309759;19;20087;-67
2023/12/02 04:06:25;;;;;;;;;;;;;;;3.05;92.10;100919.34;7308140;19;19923;-67
2023/12/02 04:08:52;;;;;;;;;;;;;;;3.06;92.00;100928.81;7320901;19;19943;-66
2023/12/02 04:11:19;;;;;;;;;;;;;;;3.01;91.98;100938.69;7314919;19;19933;-67
2023/12/02 04:13:46;;;;;;;;;;;;;;;3.04;92.25;100932.47;7321304;19;19961;-67
2023/12/02 04:16:13;;;;;;;;;;;;;;;3.04;92.39;100937.66;7320490;19;20387;-68
2023/12/02 04:18:40;;;;;;;;;;;;;;;3.07;92.45;100955.63;7317577;19;19925;-68
2023/12/02 04:21:08;;;;;;;;;;;;;;;3.05;91.90;100937.53;7308241;19;19949;-67
2023/12/02 04:23:36;;;;;;;;;;;;;;;3.07;92.01;100937.44;7311600;19;20291;-67
2023/12/02 04:26:03;;;;;;;;;;;;;;;3.06;91.91;100946.16;7316657;19;19925;-69
2023/12/02 04:28:30;;;;;;;;;;;;;;;3.02;91.96;100942.94;7312679;19;19980;-68
2023/12/02 04:30:57;;;;;;;;;;;;;;;2.96;91.71;100946.78;7318625;19;20256;-67
2023/12/02 04:33:24;;;;;;;;;;;;;;;2.96;91.91;100946.78;7312217;19;20401;-69
2023/12/02 04:35:51;;;;;;;;;;;;;;;2.97;92.22;100940.66;7320279;19;19922;-68
2023/12/02 04:38:18;;;;;;;;;;;;;;;2.91;91.92;100943.66;7316345;19;19933;-69
2023/12/02 04:40:45;;;;;;;;;;;;;;;2.89;92.42;100940.34;7319630;19;21970;-69
2023/12/02 04:43:12;;;;;;;;;;;;;;;2.87;92.25;100943.97;7327797;19;20027;-68
2023/12/02 04:45:39;;;;;;;;;;;;;;;2.86;92.32;100952.69;7324050;19;19934;-68
2023/12/02 04:48:07;;;;;;;;;;;;;;;2.92;92.53;100952.28;7312417;19;20002;-67
2023/12/02 04:50:34;;;;;;;;;;;;;;;2.90;92.30;100948.94;7307198;19;19979;-67
2023/12/02 04:53:01;;;;;;;;;;;;;;;2.92;92.69;100949.69;7315443;19;19922;-68
2023/12/02 04:55:28;;;;;;;;;;;;;;;2.98;92.33;100955.31;7308441;19;20245;-68
2023/12/02 04:57:55;;;;;;;;;;;;;;;2.90;92.26;100954.13;7304011;19;19919;-68
2023/12/02 05:00:21;;;;;;;;;;;;;;;2.85;92.25;100951.84;7313429;19;20023;-67
2023/12/02 05:02:48;;;;;;;;;;;;;;;2.86;92.62;100958.72;7318726;19;19929;-67
2023/12/02 05:05:16;;;;;;;;;;;;;;;2.86;93.03;100961.31;7311878;19;19927;-67
2023/12/02 05:07:44;;;;;;;;;;;;;;;2.88;92.50;100974.19;7316197;19;19947;-69
2023/12/02 05:10:11;;;;;;;;;;;;;;;2.85;92.32;100970.03;7311636;19;20005;-67
2023/12/02 05:12:38;;;;;;;;;;;;;;;2.85;92.82;100979.59;7324283;19;19926;-67
2023/12/02 05:15:05;;;;;;;;;;;;;;;2.86;93.37;100981.25;7325180;19;20997;-67
2023/12/02 05:17:32;;;;;;;;;;;;;;;2.92;93.16;100986.06;7319324;19;19918;-67
2023/12/02 05:19:59;;;;;;;;;;;;;;;2.92;92.98;100988.66;7318643;19;19926;-69
2023/12/02 05:22:26;;;;;;;;;;;;;;;2.93;92.14;100993.75;7315852;19;19926;-67
2023/12/02 05:24:53;;;;;;;;;;;;;;;2.93;92.13;100993.75;7327866;19;19926;-68
2023/12/02 05:27:20;;;;;;;;;;;;;;;2.88;91.87;100990.63;7323970;19;19914;-68
2023/12/02 05:29:47;;;;;;;;;;;;;;;2.81;91.79;100997.13;7322281;19;19923;-68
2023/12/02 05:32:14;;;;;;;;;;;;;;;2.80;91.78;100990.28;7318478;19;20311;-67
2023/12/02 05:34:41;;;;;;;;;;;;;;;2.84;92.29;100986.56;7326484;19;19933;-68
2023/12/02 05:37:07;;;;;;;;;;;;;;;2.84;92.70;100990.94;7322014;19;19923;-68
2023/12/02 05:39:35;;;;;;;;;;;;;;;2.80;92.13;100995.47;7327562;19;19955;-69
2023/12/02 05:42:02;;;;;;;;;;;;;;;2.76;92.15;101001.81;7311861;19;20567;-67
2023/12/02 05:44:30;;;;;;;;;;;;;;;2.79;92.72;101008.56;7315805;19;19926;-68
2023/12/02 05:46:57;;;;;;;;;;;;;;;2.75;92.84;101004.47;7325652;19;19915;-67
2023/12/02 05:49:24;;;;;;;;;;;;;;;2.76;93.05;101012.19;7322545;19;19922;-67
2023/12/02 05:51:51;;;;;;;;;;;;;;;2.74;92.63;101003.69;7315334;19;20526;-67
2023/12/02 05:54:16;;;;;;;;;;;;;;;2.77;92.58;101006.06;7315829;19;19927;-66
2023/12/02 05:56:43;;;;;;;;;;;;;;;2.77;92.42;101002.63;7321634;19;20340;-67
2023/12/02 05:59:10;;;;;;;;;;;;;;;2.80;92.98;101005.84;7316176;19;20006;-69
2023/12/02 06:01:37;;;;;;;;;;;;;;;2.80;92.88;101013.66;7329731;19;20601;-67
2023/12/02 06:04:04;;;;;;;;;;;;;;;2.81;92.77;101017.09;7316016;19;19919;-67
2023/12/02 06:06:31;;;;;;;;;;;;;;;2.83;93.01;101023.88;7319142;19;19914;-68
2023/12/02 06:08:59;;;;;;;;;;;;;;;2.85;92.71;101018.53;7301903;19;19926;-68
2023/12/02 06:11:26;;;;;;;;;;;;;;;2.84;92.30;101022.94;7317110;19;19918;-68
2023/12/02 06:13:53;;;;;;;;;;;;;;;2.88;93.09;101027.00;7304526;19;20673;-67
2023/12/02 06:16:20;;;;;;;;;;;;;;;2.88;93.87;101016.59;7315460;19;20717;-67
2023/12/02 06:18:47;;;;;;;;;;;;;;;2.86;93.44;101013.25;7326274;19;19991;-69
2023/12/02 06:21:13;;;;;;;;;;;;;;;2.83;93.13;101008.28;7312519;19;19930;-67
2023/12/02 06:23:40;;;;;;;;;;;;;;;2.90;93.70;101013.88;7323845;19;19927;-67
2023/12/02 06:26:07;;;;;;;;;;;;;;;2.95;94.05;101020.47;7313291;19;20336;-68
2023/12/02 06:28:34;;;;;;;;;;;;;;;2.93;92.80;101024.09;7325169;19;19923;-68
2023/12/02 06:31:01;;;;;;;;;;;;;;;2.90;92.73;101019.09;7317535;19;19921;-68
2023/12/02 06:33:28;;;;;;;;;;;;;;;2.89;92.50;101020.88;7320948;19;19967;-67
2023/12/02 06:35:55;;;;;;;;;;;;;;;2.88;92.77;101021.81;7317047;19;19994;-68
2023/12/02 06:38:22;;;;;;;;;;;;;;;2.89;92.80;101018.28;7308063;19;20220;-68
2023/12/02 06:40:49;;;;;;;;;;;;;;;2.88;92.67;101023.56;7310521;19;19922;-68
2023/12/02 06:43:16;;;;;;;;;;;;;;;2.84;92.17;101014.31;7300374;19;21163;-68
2023/12/02 06:45:43;;;;;;;;;;;;;;;2.80;92.20;101018.00;7316068;19;19934;-68
2023/12/02 06:48:10;;;;;;;;;;;;;;;2.77;92.39;101028.59;7316095;19;19929;-68
2023/12/02 06:50:37;;;;;;;;;;;;;;;2.84;93.00;101029.91;7324936;19;19919;-68
2023/12/02 06:53:04;;;;;;;;;;;;;;;2.90;93.35;101027.72;7320421;19;20391;-68
2023/12/02 06:55:31;;;;;;;;;;;;;;;2.89;92.88;101036.47;7321691;19;19922;-66
2023/12/02 06:57:59;;;;;;;;;;;;;;;2.88;92.28;101040.00;7320653;19;19914;-67
2023/12/02 07:00:26;;;;;;;;;;;;;;;2.87;91.76;101042.69;7316478;19;20515;-67
2023/12/02 07:02:52;;;;;;;;;;;;;;;2.83;91.92;101047.25;7313433;19;19923;-67
2023/12/02 07:05:19;;;;;;;;;;;;;;;2.80;91.80;101049.19;7321549;19;19944;-68
2023/12/02 07:07:47;;;;;;;;;;;;;;;2.74;92.39;101052.19;7308333;19;20718;-68
2023/12/02 07:10:13;;;;;;;;;;;;;;;2.71;91.86;101054.97;7305597;19;19918;-68
2023/12/02 07:12:43;;;;;;;;;;;;;;;2.68;92.41;101057.78;7319407;19;19951;-68
2023/12/02 07:15:10;;;;;;;;;;;;;;;2.69;92.99;101056.84;7320425;19;20355;-68
2023/12/02 07:17:37;;;;;;;;;;;;;;;2.72;93.27;101067.03;7324450;19;19929;-69
2023/12/02 07:20:05;;;;;;;;;;;;;;;2.76;93.40;101068.50;7315933;19;19923;-66
2023/12/02 07:22:32;;;;;;;;;;;;;;;2.80;93.26;101069.97;7313721;19;19918;-68
2023/12/02 07:24:58;;;;;;;;;;;;;;;2.82;93.53;101068.13;7319026;19;20336;-68
2023/12/02 07:27:25;;;;;;;;;;;;;;;2.86;93.55;101064.38;7326940;19;20652;-68
2023/12/02 07:29:55;;;;;;;;;;;;;;;2.86;93.21;101062.63;7312299;19;19964;-69
2023/12/02 07:32:25;;;;;;;;;;;;;;;2.84;92.89;101068.88;7317060;19;19990;-67
2023/12/02 07:34:52;;;;;;;;;;;;;;;2.79;92.40;101065.72;7323453;19;19919;-67
2023/12/02 07:37:19;;;;;;;;;;;;;;;2.80;92.23;101065.59;7319581;19;20237;-66
2023/12/02 07:39:46;;;;;;;;;;;;;;;2.83;92.77;101073.22;7319403;19;19923;-68
2023/12/02 07:42:13;;;;;;;;;;;;;;;2.74;92.84;101081.59;7316930;19;20402;-68
2023/12/02 07:44:40;;;;;;;;;;;;;;;2.71;92.46;101086.97;7320646;19;19958;-68
2023/12/02 07:47:07;;;;;;;;;;;;;;;2.72;92.39;101091.25;7319670;19;19922;-69
2023/12/02 07:49:34;;;;;;;;;;;;;;;2.67;92.16;101085.50;7312089;19;20407;-67
2023/12/02 07:52:01;;;;;;;;;;;;;;;2.66;92.31;101088.19;7316224;19;19914;-70
2023/12/02 07:54:28;;;;;;;;;;;;;;;2.65;92.29;101081.31;7326406;19;21216;-66
2023/12/02 07:56:55;;;;;;;;;;;;;;;2.67;93.40;101090.69;7329623;19;20435;-67
2023/12/02 07:59:22;;;;;;;;;;;;;;;2.63;93.01;101094.41;7329426;19;19952;-69
2023/12/02 08:01:49;;;;;;;;;;;;;;;2.67;93.19;101092.47;7323985;19;20212;-66
2023/12/02 08:04:16;;;;;;;;;;;;;;;2.70;93.57;101097.44;7312991;19;20392;-68
2023/12/02 08:06:43;;;;;;;;;;;;;;;2.70;93.62;101100.03;7311045;19;19914;-67
2023/12/02 08:09:10;;;;;;;;;;;;;;;2.72;93.99;101113.78;7317694;19;20295;-67
2023/12/02 08:11:37;;;;;;;;;;;;;;;2.77;94.59;101111.72;7317904;19;19922;-66
2023/12/02 08:14:03;;;;;;;;;;;;;;;2.77;94.35;101112.56;7326672;19;19925;-68
2023/12/02 08:16:30;;;;;;;;;;;;;;;2.68;93.88;101123.53;7314722;19;19927;-67
2023/12/02 08:18:58;;;;;;;;;;;;;;;2.66;93.40;101133.19;7314561;19;20051;-68
2023/12/02 08:21:25;;;;;;;;;;;;;;;2.63;92.89;101125.59;7307184;19;19919;-67
2023/12/02 08:23:51;;;;;;;;;;;;;;;2.57;92.98;101128.56;7318527;19;20587;-67
2023/12/02 08:26:18;;;;;;;;;;;;;;;2.57;93.27;101136.34;7316290;19;20761;-67
2023/12/02 08:28:48;;;;;;;;;;;;;;;2.55;93.70;101130.41;7309748;19;19927;-68
2023/12/02 08:31:15;;;;;;;;;;;;;;;2.63;93.80;101135.13;7313137;19;19919;-67
2023/12/02 08:33:42;;;;;;;;;;;;;;;2.64;94.14;101137.66;7314214;19;19942;-67
2023/12/02 08:36:10;;;;;;;;;;;;;;;2.64;93.67;101139.41;7324676;19;19918;-67
2023/12/02 08:38:36;;;;;;;;;;;;;;;2.63;93.69;101135.97;7309903;19;21895;-67
2023/12/02 08:41:04;;;;;;;;;;;;;;;2.67;94.02;101142.63;7300082;19;20482;-66
2023/12/02 08:43:31;;;;;;;;;;;;;;;2.60;93.18;101136.13;7310165;19;19919;-68
2023/12/02 08:45:58;;;;;;;;;;;;;;;2.53;92.59;101143.50;7322263;19;19940;-68
2023/12/02 08:48:25;;;;;;;;;;;;;;;2.45;92.19;101150.91;7311399;19;20759;-68
2023/12/02 08:50:52;;;;;;;;;;;;;;;2.42;92.40;101156.28;7323614;19;19922;-69
2023/12/02 08:53:19;;;;;;;;;;;;;;;2.39;92.26;101159.06;7322064;19;19915;-67
2023/12/02 08:55:46;;;;;;;;;;;;;;;2.33;92.54;101163.78;7319716;19;19923;-68
2023/12/02 08:58:13;;;;;;;;;;;;;;;2.33;92.68;101166.41;7322504;19;19919;-69
2023/12/02 09:00:40;;;;;;;;;;;;;;;2.26;93.12;101168.50;7320482;19;19929;-70
2023/12/02 09:03:08;;;;;;;;;;;;;;;2.25;93.71;101173.78;7319091;19;19915;-68
2023/12/02 09:05:34;;;;;;;;;;;;;;;2.22;93.84;101176.56;7314934;19;20418;-68
2023/12/02 09:08:02;;;;;;;;;;;;;;;2.16;94.12;101172.56;7310524;19;20363;-66
2023/12/02 09:10:28;;;;;;;;;;;;;;;2.16;94.65;101167.38;7310131;19;19918;-67
2023/12/02 09:12:55;;;;;;;;;;;;;;;2.20;95.07;101168.88;7322132;19;19932;-68
2023/12/02 09:15:23;;;;;;;;;;;;;;;2.24;94.78;101165.16;7319339;19;19919;-69
2023/12/02 09:17:59;;;;;;;;;;;;;;;2.19;94.39;101163.75;7327020;19;20298;-67
2023/12/02 09:20:38;;;;;;;;;;;;;;;2.18;94.28;101177.69;7326140;19;20182;-68
2023/12/02 09:23:06;;;;;;;;;;;;;;;2.14;94.33;101175.25;7320767;19;20082;-67
2023/12/02 09:25:33;;;;;;;;;;;;;;;2.12;94.61;101173.69;7318744;19;19914;-67
2023/12/02 09:28:10;;;;;;;;;;;;;;;2.08;94.60;101180.81;7317682;19;19918;-67
2023/12/02 09:30:40;;;;;;;;;;;;;;;2.16;95.04;101185.56;7307358;19;19930;-66
2023/12/02 09:33:07;;;;;;;;;;;;;;;2.15;95.40;101197.69;7315750;19;19918;-69
2023/12/02 09:35:34;;;;;;;;;;;;;;;2.25;95.66;101184.16;7306498;19;19986;-67
2023/12/02 09:38:02;;;;;;;;;;;;;;;2.28;95.73;101184.00;7309714;19;19972;-67
2023/12/02 09:40:43;;;;;;;;;;;;;;;2.59;98.89;101179.44;7322943;19;20404;-67
2023/12/02 09:43:19;;;;;;;;;;;;;;;2.71;100.00;101187.44;7335546;19;20971;-69
2023/12/02 09:45:47;;;;;;;;;;;;;;;2.66;99.85;101190.31;7326350;19;19946;-68
2023/12/02 09:51:00;;;;;;;;;;;;;;;2.62;94.66;101182.81;7311512;19;20454;-68
2023/12/02 09:53:37;;;;;;;;;;;;;;;2.64;94.95;101184.41;7319688;19;19923;-67
2023/12/02 09:56:11;;;;;;;;;;;;;;;2.59;94.60;101189.84;7316995;19;20007;-68
2023/12/02 09:58:42;;;;;;;;;;;;;;;2.62;94.56;101198.38;7321675;19;20226;-68
2023/12/02 10:01:12;;;;;;;;;;;;;;;2.63;94.74;101193.09;7325687;19;20899;-67
2023/12/02 10:03:40;;;;;;;;;;;;;;;2.65;94.13;101193.00;7308689;19;20359;-67
2023/12/02 10:06:10;;;;;;;;;;;;;;;2.67;94.36;101202.38;7321396;19;19918;-68
2023/12/02 10:08:43;;;;;;;;;;;;;;;2.64;93.65;101206.94;7327225;19;20399;-68
2023/12/02 10:11:14;;;;;;;;;;;;;;;2.67;93.30;101204.13;7323349;19;20010;-66
2023/12/02 10:13:41;;;;;;;;;;;;;;;2.64;93.23;101206.94;7320975;19;20324;-67
2023/12/02 10:16:12;;;;;;;;;;;;;;;2.61;93.52;101215.72;7302872;19;19925;-67
2023/12/02 10:18:46;;;;;;;;;;;;;;;2.62;94.37;101204.41;7295216;19;19919;-69
2023/12/02 10:21:18;;;;;;;;;;;;;;;2.74;95.43;101215.84;7298570;19;20399;-68
2023/12/02 10:23:54;;;;;;;;;;;;;;;2.74;95.11;101216.66;7326946;19;20558;-68
2023/12/02 10:26:27;;;;;;;;;;;;;;;2.71;95.28;101222.03;7320210;19;20030;-68
2023/12/02 10:29:02;;;;;;;;;;;;;;;2.70;93.64;101207.38;7307961;19;19922;-68
2023/12/02 10:31:30;;;;;;;;;;;;;;;2.66;92.16;101205.06;7316880;19;20689;-66
2023/12/02 10:33:57;;;;;;;;;;;;;;;2.66;92.32;101213.69;7319225;19;19918;-68
2023/12/02 10:36:26;;;;;;;;;;;;;;;2.67;91.86;101204.13;7332931;19;19918;-68
2023/12/02 10:39:02;;;;;;;;;;;;;;;2.61;91.31;101209.69;7332395;19;19922;-67
2023/12/02 10:41:41;;;;;;;;;;;;;;;2.56;90.80;101205.63;7323437;19;20516;-67
2023/12/02 10:44:07;;;;;;;;;;;;;;;2.50;91.61;101203.38;7323341;19;19929;-66
2023/12/02 10:46:35;;;;;;;;;;;;;;;2.53;91.77;101200.63;7323228;19;19923;-66
2023/12/02 10:49:01;;;;;;;;;;;;;;;2.48;91.84;101196.63;7326610;19;19922;-66
2023/12/02 10:51:30;;;;;;;;;;;;;;;2.56;92.21;101199.59;7319010;19;19922;-67
2023/12/02 10:53:58;;;;;;;;;;;;;;;2.62;92.16;101198.38;7320263;19;19942;-67
2023/12/02 10:56:27;;;;;;;;;;;;;;;2.53;91.48;101194.59;7317368;19;19926;-66
2023/12/02 10:58:55;;;;;;;;;;;;;;;2.57;92.22;101196.06;7328463;19;20680;-68
2023/12/02 11:01:26;;;;;;;;;;;;;;;2.62;92.24;101198.38;7321052;19;19926;-68
2023/12/02 11:03:57;;;;;;;;;;;;;;;2.66;91.74;101199.84;7328445;19;19930;-68
2023/12/02 11:06:31;;;;;;;;;;;;;;;2.68;91.42;101196.25;7317188;19;19915;-68
2023/12/02 11:09:02;;;;;;;;;;;;;;;2.71;91.34;101201.25;7321250;19;19915;-68
2023/12/02 11:11:31;;;;;;;;;;;;;;;2.73;91.68;101201.16;7319273;19;19959;-66
2023/12/02 11:14:00;;;;;;;;;;;;;;;2.80;91.47;101197.25;7318729;19;19975;-68
2023/12/02 11:16:36;;;;;;;;;;;;;;;2.77;91.37;101190.50;7322654;19;19933;-68
2023/12/02 11:19:23;;;;;;;;;;;;;;;2.82;91.25;101193.66;7319339;19;20840;-67
2023/12/02 11:22:02;;;;;;;;;;;;;;;2.91;91.77;101193.06;7317644;19;19922;-69
2023/12/02 11:24:59;;;;;;;;;;;;;;;2.94;91.58;101192.91;7318824;19;21265;-68
2023/12/02 11:27:33;;;;;;;;;;;;;;;3.02;91.93;101200.22;7328460;19;19922;-67
2023/12/02 11:30:00;;;;;;;;;;;;;;;3.05;90.75;101194.81;7310526;19;20600;-69
2023/12/02 11:32:34;;;;;;;;;;;;;;;3.06;90.31;101198.25;7301262;19;19942;-67
2023/12/02 11:35:10;;;;;;;;;;;;;;;3.10;90.04;101202.34;7323009;19;19918;-71
2023/12/02 11:37:57;;;;;;;;;;;;;;;3.13;90.00;101210.78;7324422;19;20829;-67
2023/12/02 11:40:31;;;;;;;;;;;;;;;3.25;90.03;101206.59;7309653;19;20313;-69
2023/12/02 11:43:15;;;;;;;;;;;;;;;3.24;90.11;101200.53;7315355;19;20394;-67
2023/12/02 11:45:45;;;;;;;;;;;;;;;3.18;89.50;101205.28;7326800;19;20502;-68
2023/12/02 11:48:12;;;;;;;;;;;;;;;3.20;89.70;101206.84;7322183;19;19930;-66
2023/12/02 11:50:58;;;;;;;;;;;;;;;3.22;89.81;101212.78;7309058;19;22236;-68
2023/12/02 11:53:44;;;;;;;;;;;;;;;3.21;90.20;101205.91;7323513;19;19919;-68
2023/12/02 11:56:11;;;;;;;;;;;;;;;3.20;89.05;101203.44;7298789;19;20309;-67
2023/12/02 11:59:15;;;;;;;;;;;;;;;3.20;88.73;101203.44;7313939;19;19929;-68
2023/12/02 12:02:00;;;;;;;;;;;;;;;3.15;88.68;101203.69;7315515;19;19978;-67
2023/12/02 12:04:49;;;;;;;;;;;;;;;3.22;89.31;101201.56;7320180;19;19967;-70
2023/12/02 12:07:35;;;;;;;;;;;;;;;3.27;89.65;101189.09;7315511;19;20546;-68
2023/12/02 12:10:03;;;;;;;;;;;;;;;3.34;89.31;101191.22;7317784;19;19934;-67
2023/12/02 12:12:31;;;;;;;;;;;;;;;3.33;89.16;101193.91;7311961;19;19940;-68
2023/12/02 12:15:00;;;;;;;;;;;;;;;3.33;89.58;101199.13;7308316;19;20218;-68
2023/12/02 12:17:29;;;;;;;;;;;;;;;3.29;88.72;101201.09;7311380;19;19926;-68
2023/12/02 12:19:59;;;;;;;;;;;;;;;3.23;88.36;101204.06;7321197;19;19925;-69
2023/12/02 12:22:26;;;;;;;;;;;;;;;3.30;89.11;101204.53;7324102;19;19930;-68
2023/12/02 12:24:54;;;;;;;;;;;;;;;3.31;89.00;101207.00;7314231;19;20265;-69
2023/12/02 12:27:23;;;;;;;;;;;;;;;3.39;89.28;101211.75;7321347;19;20002;-67
2023/12/02 12:29:53;;;;;;;;;;;;;;;3.36;89.28;101210.16;7313067;19;19927;-67
2023/12/02 12:32:20;;;;;;;;;;;;;;;3.36;88.12;101204.94;7329853;19;19923;-67
2023/12/02 12:34:51;;;;;;;;;;;;;;;3.37;88.46;101211.81;7300593;19;20316;-67
2023/12/02 12:37:20;;;;;;;;;;;;;;;3.39;88.38;101212.56;7312465;19;19939;-68
2023/12/02 12:39:48;;;;;;;;;;;;;;;3.51;89.32;101210.09;7323926;19;19933;-67
2023/12/02 12:42:21;;;;;;;;;;;;;;;3.55;89.08;101217.63;7326690;19;19922;-67
2023/12/02 12:44:49;;;;;;;;;;;;;;;3.58;89.11;101209.63;7328056;19;19931;-69
2023/12/02 12:47:20;;;;;;;;;;;;;;;3.55;89.34;101214.19;7327025;19;19922;-67
2023/12/02 12:49:48;;;;;;;;;;;;;;;3.43;88.56;101219.25;7326887;19;19929;-68
2023/12/02 12:52:19;;;;;;;;;;;;;;;3.37;88.61;101217.03;7320775;19;19926;-68
2023/12/02 12:54:50;;;;;;;;;;;;;;;3.36;88.41;101223.16;7326061;19;19922;-67
2023/12/02 12:57:39;;;;;;;;;;;;;;;3.38;88.37;101218.69;7326426;19;19918;-69
2023/12/02 13:00:10;;;;;;;;;;;;;;;3.48;88.50;101220.72;7323584;19;19922;-66